This is the latest recevied weather packets stored in our database for station/object KE5VT. If no packets are shown the sender has not sent any weather packets the latest 10 day(s).
| Time | Temp. | Humidity | Pressure | Rain* | Wind** | Luminosity | Snow |
|---|---|---|---|---|---|---|---|
| 1787515380 | 31.11° C | 47% | 1010.7 hPa | 0 mm | - | 259 W/m² | - |
| 1787515075 | 30.56° C | 48% | 1010.7 hPa | 0 mm | - | 96 W/m² | - |
| 1787514773 | 30.56° C | 47% | 1010.7 hPa | 0 mm | - | 146 W/m² | - |
| 1787514468 | 30.56° C | 47% | 1010.6 hPa | 0 mm | - | 104 W/m² | - |
| 1787514163 | 30.56° C | 48% | 1010.4 hPa | 0 mm | - | 590 W/m² | - |
| 1787513858 | 31.11° C | 46% | 1010.7 hPa | 0 mm | - | 160 W/m² | - |
| 1787513553 | 31.11° C | 48% | 1010.6 hPa | 0 mm | - | 145 W/m² | - |
| 1787513249 | 31.11° C | 47% | 1010.7 hPa | 0 mm | - | 608 W/m² | - |
| 1787512945 | 30° C | 49% | 1010.9 hPa | 0 mm | - | 584 W/m² | - |
| 1787512641 | 30.56° C | 48% | 1010.8 hPa | 0 mm | - | 85 W/m² | - |
| 1787512336 | 32.22° C | 44% | 1010.7 hPa | 0 mm | - | 301 W/m² | - |
| 1787512032 | 31.67° C | 46% | 1010.6 hPa | 0 mm | - | 346 W/m² | - |
| 1787511727 | 31.11° C | 46% | 1010.7 hPa | 0 mm | - | 455 W/m² | - |
| 1787511426 | 31.11° C | 47% | 1010.8 hPa | 0 mm | - | 538 W/m² | - |
| 1787511120 | 30.56° C | 46% | 1011.1 hPa | 0 mm | - | 597 W/m² | - |
| 1787510820 | 30° C | 47% | 1011 hPa | 0 mm | - | 251 W/m² | - |
| 1787510515 | 31.67° C | 47% | 1010.9 hPa | 0 mm | - | 74 W/m² | - |
| 1787510211 | 31.67° C | 45% | 1010.9 hPa | 0 mm | - | 426 W/m² | - |
| 1787509907 | 31.67° C | 44% | 1010.9 hPa | 0 mm | - | 337 W/m² | - |
| 1787509607 | 32.78° C | 45% | 1011.2 hPa | 0 mm | - | 514 W/m² | - |
| 1787509304 | 32.22° C | 44% | 1011.1 hPa | 0 mm | - | 672 W/m² | - |
| 1787509003 | 32.78° C | 42% | 1011.2 hPa | 0 mm | - | 678 W/m² | - |
| 1787508700 | 32.22° C | 46% | 1011.1 hPa | 0 mm | - | 679 W/m² | - |
| 1787508400 | 32.78° C | 44% | 1011.3 hPa | 0 mm | - | 680 W/m² | - |
| 1787508097 | 32.22° C | 46% | 1011.2 hPa | 0 mm | - | 682 W/m² | - |
* Rain latest hour (hover to see other rain measurements)
** Current wind speed in m/s (hover to see current wind gust speed)